Flight Track Log - Related Links

Times and Time Zones

All times are in EDT time to prevent confusion due to time zone crossing. See the EGF3796 flight status page for this flight to view local times or setup timezone preferences in your user account.

Time Position Orientation Groundspeed Altitude Reporting Facility
EDT Latitude Longitude Course Direction KTS MPH feet Rate Location/Type
Wed 06:40:46 PM 41.9167 -87.9167 207° Southwest 174 200 2,300  Level Chicago TRACON
Wed 06:41:45 PM 41.8667 -87.9500 206° Southwest 214 246 4,100 1,854 Climbing Chicago TRACON
Wed 06:42:00 PM 41.6623 -88.0488 203° Southwest  Level FlightAware
Wed 06:42:49 PM 41.8061 -87.9683 193° South 241 277 6,100  Level Chicago Center
Wed 06:43:00 PM 41.5574 -88.1004 197° South  Level FlightAware
Wed 06:43:51 PM 41.7339 -88.0053 201° Southwest 276 318 9,000  Level Chicago Center
Wed 06:44:00 PM 41.4501 -88.1433 197° South  Level FlightAware
Wed 06:44:53 PM 41.6456 -88.0522 202° Southwest 286 329 11,800  Level Chicago Center
Wed 06:45:00 PM 41.3432 -88.1867 201° Southwest  Level FlightAware
Wed 06:45:55 PM 41.5569 -88.0994 202° Southwest 346 398 12,800  Level Chicago Center
Wed 06:46:00 PM 41.2456 -88.2418 207° Southwest  Level FlightAware
Wed 06:46:57 PM 41.4600 -88.1500 201° Southwest 381 438 14,200  Level Chicago Center
Wed 06:47:59 PM 41.3381 -88.2106 200° South 407 468 16,100 1,742 Climbing Chicago Center
Wed 06:49:01 PM 41.2308 -88.2589 199° South 411 473 17,800 1,597 Climbing Chicago Center
Wed 06:50:03 PM 41.1219 -88.3078 199° South 416 479 19,400 1,500 Climbing Chicago Center
Wed 06:51:05 PM 41.0106 -88.3578 199° South 424 488 20,900 1,500 Climbing Chicago Center
Wed 06:52:07 PM 40.9000 -88.4075 199° South 422 486 22,500 1,632 Climbing Chicago Center
Wed 06:53:10 PM 40.7653 -88.4675 199° South 428 493 24,300 1,488 Climbing Chicago Center
Wed 06:54:12 PM 40.6539 -88.5219 200° South 429 494 25,600 1,113 Climbing Chicago Center
Wed 06:55:14 PM 40.5642 -88.6247 221° Southwest 429 494 26,600 1,161 Climbing Chicago Center
Wed 06:56:16 PM 40.4708 -88.7283 220° Southwest 439 505 28,000 1,306 Climbing Chicago Center
Wed 06:57:18 PM 40.3767 -88.8339 221° Southwest 435 501 29,300 1,210 Climbing Chicago Center
Wed 06:58:20 PM 40.2856 -88.9361 221° Southwest 431 496 30,500 1,065 Climbing Chicago Center
Wed 06:59:22 PM 40.1936 -89.0369 220° Southwest 429 494 31,500 906 Climbing Chicago Center
Wed 07:00:06 PM 40.1181 -89.1200 220° Southwest 431 496 32,100 906 Climbing Kansas Center
Wed 07:01:08 PM 40.0250 -89.2219 220° Southwest 434 499 33,100 871 Climbing Kansas Center
Wed 07:02:10 PM 39.9325 -89.3244 220° Southwest 435 501 33,900 968 Climbing Kansas Center
Wed 07:03:12 PM 39.8228 -89.4461 220° Southwest 432 497 35,100 1,161 Climbing Kansas Center
Wed 07:04:14 PM 39.7319 -89.5458 220° Southwest 428 493 36,300 1,161 Climbing Kansas Center
Wed 07:05:16 PM 39.6394 -89.6475 220° Southwest 418 481 37,500 823 Climbing Kansas Center
Wed 07:06:18 PM 39.5528 -89.7411 220° Southwest 409 471 38,000 242 Climbing Kansas Center
Wed 07:07:20 PM 39.4642 -89.8353 219° Southwest 412 474 38,000  Level Kansas Center
Wed 07:08:22 PM 39.3722 -89.9353 220° Southwest 427 491 38,000  Level Kansas Center
Wed 07:09:24 PM 39.2781 -90.0367 220° Southwest 438 504 38,000  Level Kansas Center
Wed 07:10:26 PM 39.1822 -90.1394 220° Southwest 447 514 38,000  Level Kansas Center
Wed 07:11:28 PM 39.0672 -90.2631 220° Southwest 451 519 38,000  Level Kansas Center
Wed 07:12:29 PM 38.9728 -90.3636 220° Southwest 446 513 38,000  Level Kansas Center
Wed 07:13:31 PM 38.8758 -90.4694 220° Southwest 442 509 38,000  Level Kansas Center
Wed 07:14:33 PM 38.7917 -90.5850 227° Southwest 442 509 38,000  Level Kansas Center
Wed 07:15:35 PM 38.7203 -90.6939 230° Southwest 440 506 38,000  Level Kansas Center
Wed 07:16:37 PM 38.6264 -90.8319 229° Southwest 436 502 38,000  Level Kansas Center
Wed 07:17:39 PM 38.5475 -90.9489 229° Southwest 437 503 38,000  Level Kansas Center
Wed 07:18:41 PM 38.4681 -91.0658 229° Southwest 438 504 38,000  Level Kansas Center
Wed 07:19:43 PM 38.3892 -91.1825 229° Southwest 436 502 38,000  Level Kansas Center
Wed 07:20:45 PM 38.3092 -91.2994 229° Southwest 439 505 38,000 -290 Level Kansas Center
Wed 07:21:47 PM 38.2172 -91.4331 229° Southwest 438 504 37,400 -634 Descending Kansas Center
Wed 07:22:48 PM 38.1353 -91.5528 229° Southwest 443 510 36,700 -829 Descending Kansas Center
Wed 07:23:50 PM 38.0522 -91.6736 229° Southwest 448 516 35,700 -1,258 Descending Kansas Center
Wed 07:24:52 PM 37.9717 -91.7903 229° Southwest 437 503 34,100 -1,500 Descending Kansas Center
Wed 07:25:54 PM 37.8925 -91.9067 229° Southwest 430 495 32,600 -1,548 Descending Kansas Center
Wed 07:26:56 PM 37.8103 -92.0250 229° Southwest 436 502 30,900 -1,707 Descending Kansas Center
Wed 07:27:57 PM 37.7264 -92.1447 228° Southwest 455 524 29,100 -1,707 Descending Kansas Center
Wed 07:28:59 PM 37.6258 -92.2881 228° Southwest 443 510 27,400 -1,113 Descending Kansas Center
Wed 07:30:01 PM 37.5442 -92.4042 228° Southwest 440 506 26,800 -823 Descending Kansas Center
Wed 07:31:03 PM 37.4633 -92.5189 228° Southwest 436 502 25,700 -1,452 Descending Kansas Center
Wed 07:32:05 PM 37.3892 -92.6356 231° Southwest 428 493 23,800 -1,756 Descending Kansas Center
Wed 07:33:06 PM 37.3067 -92.7456 227° Southwest 435 501 22,100 -1,220 Descending Kansas Center
Wed 07:34:08 PM 37.2225 -92.8544 226° Southwest 435 501 21,300 -774 Descending Kansas Center
Wed 07:35:10 PM 37.1431 -92.9642 228° Southwest 427 491 20,500 -871 Descending Kansas Center
Wed 07:36:12 PM 37.0642 -93.0769 229° Southwest 426 490 19,500 -1,512 Descending Kansas Center
Wed 07:37:13 PM 36.9836 -93.1867 227° Southwest 428 493 17,400 -1,707 Descending Kansas Center
Wed 07:38:15 PM 36.8939 -93.3100 228° Southwest 404 465 16,000 -1,113 Descending Kansas Center
Wed 07:39:17 PM 36.8300 -93.3903 225° Southwest 395 455 15,100 -1,024 Descending Kansas Center
Wed 07:40:18 PM 36.7394 -93.5069 226° Southwest 393 452 13,900 -1,073 Descending Kansas Center
Wed 07:41:20 PM 36.6767 -93.6106 233° Southwest 384 442 12,900 -968 Descending Kansas Center
Wed 07:42:22 PM 36.6325 -93.7219 244° Southwest 365 420 11,900 -927 Descending Kansas Center
Wed 07:43:23 PM 36.5894 -93.8261 243° Southwest 356 410 11,000 -927 Descending Kansas Center
Wed 07:44:25 PM 36.5450 -93.9364 243° Southwest 356 410 10,000 -823 Descending Kansas Center
Wed 07:45:27 PM 36.4978 -94.0483 242° Southwest 304 350 9,300 -1,306 Descending Kansas Center
Wed 07:46:29 PM 36.4650 -94.1308 244° Southwest 272 313 7,300 -1,854 Descending Kansas Center
Wed 07:47:30 PM 36.4311 -94.2106 242° Southwest 265 305 5,500 -1,770 Descending Kansas Center

Login

Don't have an account? Register now (free) for customized features, flight alerts, and more!